sensor_id;sensor_type;location;lat;lon;timestamp;pressure;altitude;pressure_sealevel;temperature;humidity
22311;BME280;11323;49.610;11.016;2023-10-09T00:04:23;98812.03;;;14.39;72.78
22311;BME280;11323;49.610;11.016;2023-10-09T00:09:25;98809.41;;;14.39;72.59
22311;BME280;11323;49.610;11.016;2023-10-09T00:14:53;98777.56;;;14.15;73.19
22311;BME280;11323;49.610;11.016;2023-10-09T00:20:13;98751.09;;;14.00;72.80
22311;BME280;11323;49.610;11.016;2023-10-09T00:26:02;98802.34;;;14.39;72.23
22311;BME280;11323;49.610;11.016;2023-10-09T00:37:08;98779.13;;;14.44;73.29
22311;BME280;11323;49.610;11.016;2023-10-09T00:42:36;98716.81;;;14.20;72.73
22311;BME280;11323;49.610;11.016;2023-10-09T00:47:41;98717.88;;;14.27;72.70
22311;BME280;11323;49.610;11.016;2023-10-09T00:52:45;98722.78;;;14.30;73.20
22311;BME280;11323;49.610;11.016;2023-10-09T00:58:25;98737.53;;;14.31;72.69
22311;BME280;11323;49.610;11.016;2023-10-09T01:03:36;98742.19;;;14.38;73.00
22311;BME280;11323;49.610;11.016;2023-10-09T01:08:46;98730.06;;;14.36;72.98
22311;BME280;11323;49.610;11.016;2023-10-09T01:14:53;98698.06;;;14.07;73.96
22311;BME280;11323;49.610;11.016;2023-10-09T01:19:59;98688.41;;;14.07;73.37
22311;BME280;11323;49.610;11.016;2023-10-09T01:25:05;98699.09;;;14.14;73.83
22311;BME280;11323;49.610;11.016;2023-10-09T01:30:07;98647.41;;;13.98;72.91
22311;BME280;11323;49.610;11.016;2023-10-09T01:35:14;98694.69;;;14.41;73.17
22311;BME280;11323;49.610;11.016;2023-10-09T01:40:21;98684.19;;;14.41;73.07
22311;BME280;11323;49.610;11.016;2023-10-09T01:45:42;98690.75;;;14.45;73.26
22311;BME280;11323;49.610;11.016;2023-10-09T01:50:43;98689.31;;;14.50;72.90
22311;BME280;11323;49.610;11.016;2023-10-09T01:55:54;98675.91;;;14.54;73.46
22311;BME280;11323;49.610;11.016;2023-10-09T02:01:15;98683.13;;;14.60;73.34
22311;BME280;11323;49.610;11.016;2023-10-09T02:06:37;98667.84;;;14.47;72.63
22311;BME280;11323;49.610;11.016;2023-10-09T02:11:38;98662.28;;;14.50;72.98
22311;BME280;11323;49.610;11.016;2023-10-09T02:16:47;98663.56;;;14.46;73.07
22311;BME280;11323;49.610;11.016;2023-10-09T02:22:02;98659.19;;;14.55;73.06
22311;BME280;11323;49.610;11.016;2023-10-09T02:27:32;98656.59;;;14.63;72.41
22311;BME280;11323;49.610;11.016;2023-10-09T02:32:54;98656.75;;;14.61;73.19
22311;BME280;11323;49.610;11.016;2023-10-09T02:38:07;98643.56;;;14.45;73.18
22311;BME280;11323;49.610;11.016;2023-10-09T02:43:10;98653.09;;;14.54;73.00
22311;BME280;11323;49.610;11.016;2023-10-09T02:48:27;98658.34;;;14.54;73.24
22311;BME280;11323;49.610;11.016;2023-10-09T02:53:37;98633.34;;;14.33;72.87
22311;BME280;11323;49.610;11.016;2023-10-09T02:58:41;98616.59;;;14.26;72.96
22311;BME280;11323;49.610;11.016;2023-10-09T03:03:45;98623.78;;;14.24;73.24
22311;BME280;11323;49.610;11.016;2023-10-09T03:08:48;98624.78;;;14.23;73.17
22311;BME280;11323;49.610;11.016;2023-10-09T03:13:49;98610.00;;;14.22;73.01
22311;BME280;11323;49.610;11.016;2023-10-09T03:18:53;98652.56;;;14.42;72.75
22311;BME280;11323;49.610;11.016;2023-10-09T03:23:54;98641.22;;;14.33;72.78
22311;BME280;11323;49.610;11.016;2023-10-09T03:28:58;98640.69;;;14.30;73.08
22311;BME280;11323;49.610;11.016;2023-10-09T03:34:06;98631.34;;;14.27;72.97
22311;BME280;11323;49.610;11.016;2023-10-09T03:39:10;98620.66;;;14.20;73.00
22311;BME280;11323;49.610;11.016;2023-10-09T03:44:40;98617.88;;;14.22;73.04
22311;BME280;11323;49.610;11.016;2023-10-09T03:49:44;98598.47;;;14.07;72.92
22311;BME280;11323;49.610;11.016;2023-10-09T03:54:45;98626.88;;;14.19;74.02
22311;BME280;11323;49.610;11.016;2023-10-09T03:59:50;98616.03;;;14.14;73.11
22311;BME280;11323;49.610;11.016;2023-10-09T04:04:52;98616.19;;;14.13;74.08
22311;BME280;11323;49.610;11.016;2023-10-09T04:10:03;98610.06;;;14.04;73.60
22311;BME280;11323;49.610;11.016;2023-10-09T04:15:24;98609.28;;;14.03;73.70
22311;BME280;11323;49.610;11.016;2023-10-09T04:20:35;98619.25;;;14.00;72.53
22311;BME280;11323;49.610;11.016;2023-10-09T04:25:44;98596.06;;;13.87;73.27
22311;BME280;11323;49.610;11.016;2023-10-09T04:30:56;98588.88;;;13.89;72.71
22311;BME280;11323;49.610;11.016;2023-10-09T04:36:06;98584.84;;;13.77;73.37
22311;BME280;11323;49.610;11.016;2023-10-09T04:41:22;98587.81;;;13.73;73.59
22311;BME280;11323;49.610;11.016;2023-10-09T04:47:15;98594.00;;;13.72;73.29
22311;BME280;11323;49.610;11.016;2023-10-09T04:52:21;98598.88;;;13.67;73.47
22311;BME280;11323;49.610;11.016;2023-10-09T04:57:31;98592.63;;;13.60;73.55
22311;BME280;11323;49.610;11.016;2023-10-09T05:02:38;98578.16;;;13.56;72.92
22311;BME280;11323;49.610;11.016;2023-10-09T05:07:38;98598.97;;;13.57;72.77
22311;BME280;11323;49.610;11.016;2023-10-09T05:13:02;98607.66;;;13.58;73.22
22311;BME280;11323;49.610;11.016;2023-10-09T05:18:09;98594.78;;;13.47;73.15
22311;BME280;11323;49.610;11.016;2023-10-09T05:23:13;98604.66;;;13.53;73.59
22311;BME280;11323;49.610;11.016;2023-10-09T05:28:32;98553.19;;;13.25;73.64
22311;BME280;11323;49.610;11.016;2023-10-09T05:33:49;63548.38;;;-146.54;100.00
22311;BME280;11323;49.610;11.016;2023-10-09T05:38:56;63548.38;;;-146.54;100.00
22311;BME280;11323;49.610;11.016;2023-10-09T05:44:15;63548.38;;;-146.54;100.00
22311;BME280;11323;49.610;11.016;2023-10-09T05:49:34;63548.38;;;-146.54;100.00
22311;BME280;11323;49.610;11.016;2023-10-09T05:54:49;63548.38;;;-146.54;100.00
22311;BME280;11323;49.610;11.016;2023-10-09T06:00:11;63548.38;;;-146.54;100.00
22311;BME280;11323;49.610;11.016;2023-10-09T06:05:32;63548.38;;;-146.54;100.00
22311;BME280;11323;49.610;11.016;2023-10-09T06:11:02;63548.38;;;-146.54;100.00
22311;BME280;11323;49.610;11.016;2023-10-09T06:16:23;63548.38;;;-146.54;100.00
22311;BME280;11323;49.610;11.016;2023-10-09T06:21:46;98598.06;;;13.67;73.71
22311;BME280;11323;49.610;11.016;2023-10-09T06:26:53;98598.28;;;13.73;73.89
22311;BME280;11323;49.610;11.016;2023-10-09T06:31:59;98600.28;;;13.80;73.38
22311;BME280;11323;49.610;11.016;2023-10-09T06:37:16;98621.28;;;13.88;73.89
22311;BME280;11323;49.610;11.016;2023-10-09T06:42:39;98603.63;;;13.90;73.17
22311;BME280;11323;49.610;11.016;2023-10-09T06:48:02;98619.75;;;14.03;73.40
22311;BME280;11323;49.610;11.016;2023-10-09T06:53:33;98603.34;;;14.01;73.10
22311;BME280;11323;49.610;11.016;2023-10-09T06:58:52;98614.38;;;14.13;73.45
22311;BME280;11323;49.610;11.016;2023-10-09T07:03:56;98623.97;;;14.23;73.66
22311;BME280;11323;49.610;11.016;2023-10-09T07:09:18;98612.63;;;14.22;73.77
22311;BME280;11323;49.610;11.016;2023-10-09T07:14:28;98625.19;;;14.45;73.54
22311;BME280;11323;49.610;11.016;2023-10-09T07:19:32;98612.94;;;14.45;73.63
22311;BME280;11323;49.610;11.016;2023-10-09T07:24:35;98619.00;;;14.54;73.09
22311;BME280;11323;49.610;11.016;2023-10-09T07:29:43;98638.72;;;14.66;73.23
22311;BME280;11323;49.610;11.016;2023-10-09T07:34:49;98653.25;;;14.79;73.05
22311;BME280;11323;49.610;11.016;2023-10-09T07:39:52;98658.50;;;14.87;73.00
22311;BME280;11323;49.610;11.016;2023-10-09T07:45:00;98662.81;;;14.96;73.02
22311;BME280;11323;49.610;11.016;2023-10-09T07:50:12;98662.81;;;14.96;73.02
22311;BME280;11323;49.610;11.016;2023-10-09T07:55:12;98669.25;;;15.19;72.60
22311;BME280;11323;49.610;11.016;2023-10-09T08:00:26;98664.69;;;15.21;72.71
22311;BME280;11323;49.610;11.016;2023-10-09T08:05:45;98660.75;;;15.25;72.42
22311;BME280;11323;49.610;11.016;2023-10-09T08:10:51;98669.28;;;15.27;72.57
22311;BME280;11323;49.610;11.016;2023-10-09T08:16:20;98676.84;;;15.38;72.30
22311;BME280;11323;49.610;11.016;2023-10-09T08:21:22;98687.22;;;15.48;72.50
22311;BME280;11323;49.610;11.016;2023-10-09T08:26:41;98687.53;;;15.45;71.96
22311;BME280;11323;49.610;11.016;2023-10-09T08:31:48;98696.38;;;15.44;71.93
22311;BME280;11323;49.610;11.016;2023-10-09T08:36:57;98693.94;;;15.42;71.88
22311;BME280;11323;49.610;11.016;2023-10-09T08:41:57;98702.31;;;15.46;72.02
22311;BME280;11323;49.610;11.016;2023-10-09T08:46:58;98700.34;;;15.56;71.86
22311;BME280;11323;49.610;11.016;2023-10-09T08:51:59;98693.78;;;15.52;71.84
22311;BME280;11323;49.610;11.016;2023-10-09T08:57:03;98699.22;;;15.59;71.75
22311;BME280;11323;49.610;11.016;2023-10-09T09:02:05;98694.09;;;15.66;72.00
22311;BME280;11323;49.610;11.016;2023-10-09T09:07:11;98701.53;;;15.70;71.96
22311;BME280;11323;49.610;11.016;2023-10-09T09:12:24;98691.50;;;15.74;72.03
22311;BME280;11323;49.610;11.016;2023-10-09T09:17:32;98715.16;;;15.82;71.76
22311;BME280;11323;49.610;11.016;2023-10-09T09:22:51;98718.75;;;15.81;71.84
22311;BME280;11323;49.610;11.016;2023-10-09T09:27:52;98714.34;;;15.82;71.88
22311;BME280;11323;49.610;11.016;2023-10-09T09:32:53;98704.00;;;15.88;72.20
22311;BME280;11323;49.610;11.016;2023-10-09T09:38:12;98715.34;;;15.89;72.62
22311;BME280;11323;49.610;11.016;2023-10-09T09:43:17;98710.91;;;15.89;72.70
22311;BME280;11323;49.610;11.016;2023-10-09T09:48:22;98717.97;;;15.97;72.61
22311;BME280;11323;49.610;11.016;2023-10-09T09:53:24;98714.19;;;15.92;72.53
22311;BME280;11323;49.610;11.016;2023-10-09T09:58:25;98737.84;;;15.92;72.73
22311;BME280;11323;49.610;11.016;2023-10-09T10:03:36;98729.66;;;15.95;73.02
22311;BME280;11323;49.610;11.016;2023-10-09T10:08:41;98730.78;;;16.00;73.56
22311;BME280;11323;49.610;11.016;2023-10-09T10:13:54;98739.00;;;16.14;73.51
22311;BME280;11323;49.610;11.016;2023-10-09T10:19:03;98727.66;;;16.13;73.55
22311;BME280;11323;49.610;11.016;2023-10-09T10:29:32;98726.34;;;16.17;73.69
22311;BME280;11323;49.610;11.016;2023-10-09T10:34:54;98715.50;;;16.20;74.12
22311;BME280;11323;49.610;11.016;2023-10-09T10:39:57;98695.63;;;16.26;74.46
22311;BME280;11323;49.610;11.016;2023-10-09T10:45:02;98678.34;;;16.32;74.81
22311;BME280;11323;49.610;11.016;2023-10-09T10:50:02;98658.91;;;16.33;74.80
22311;BME280;11323;49.610;11.016;2023-10-09T10:55:22;98664.97;;;16.42;74.14
22311;BME280;11323;49.610;11.016;2023-10-09T11:00:31;98660.84;;;16.47;74.62
22311;BME280;11323;49.610;11.016;2023-10-09T11:05:50;98655.44;;;16.49;74.30
22311;BME280;11323;49.610;11.016;2023-10-09T11:10:51;98668.72;;;16.64;74.25
22311;BME280;11323;49.610;11.016;2023-10-09T11:15:53;98657.81;;;16.67;74.40
22311;BME280;11323;49.610;11.016;2023-10-09T11:21:15;98680.97;;;16.80;74.92
22311;BME280;11323;49.610;11.016;2023-10-09T11:26:15;98698.22;;;16.82;74.83
22311;BME280;11323;49.610;11.016;2023-10-09T11:31:29;98720.94;;;16.83;74.49
22311;BME280;11323;49.610;11.016;2023-10-09T11:36:34;98641.44;;;16.88;75.15
22311;BME280;11323;49.610;11.016;2023-10-09T11:41:39;98640.63;;;16.88;74.75
22311;BME280;11323;49.610;11.016;2023-10-09T11:46:57;98672.69;;;17.00;74.68
22311;BME280;11323;49.610;11.016;2023-10-09T11:52:08;98718.25;;;17.00;75.19
22311;BME280;11323;49.610;11.016;2023-10-09T11:57:08;98731.59;;;16.98;74.83
22311;BME280;11323;49.610;11.016;2023-10-09T12:02:09;98757.25;;;17.05;75.68
22311;BME280;11323;49.610;11.016;2023-10-09T12:07:13;98761.69;;;17.04;75.59
22311;BME280;11323;49.610;11.016;2023-10-09T12:12:14;98712.66;;;17.03;75.69
22311;BME280;11323;49.610;11.016;2023-10-09T12:17:14;98651.09;;;17.04;75.50
22311;BME280;11323;49.610;11.016;2023-10-09T12:22:14;98612.59;;;17.03;75.46
22311;BME280;11323;49.610;11.016;2023-10-09T12:27:16;98564.50;;;17.09;75.95
22311;BME280;11323;49.610;11.016;2023-10-09T12:32:20;98559.81;;;17.20;75.65
22311;BME280;11323;49.610;11.016;2023-10-09T12:37:21;98567.00;;;17.26;76.03
22311;BME280;11323;49.610;11.016;2023-10-09T12:42:21;98534.06;;;17.30;76.05
22311;BME280;11323;49.610;11.016;2023-10-09T12:47:22;98528.44;;;17.33;75.42
22311;BME280;11323;49.610;11.016;2023-10-09T12:52:22;98517.91;;;17.33;75.41
22311;BME280;11323;49.610;11.016;2023-10-09T12:57:29;98514.44;;;17.33;75.75
22311;BME280;11323;49.610;11.016;2023-10-09T13:02:30;98514.63;;;17.31;75.37
22311;BME280;11323;49.610;11.016;2023-10-09T13:07:31;98518.34;;;17.37;75.50
22311;BME280;11323;49.610;11.016;2023-10-09T13:12:31;98512.25;;;17.36;75.30
22311;BME280;11323;49.610;11.016;2023-10-09T13:17:31;98515.97;;;17.42;74.76
22311;BME280;11323;49.610;11.016;2023-10-09T13:22:32;98510.56;;;17.43;74.13
22311;BME280;11323;49.610;11.016;2023-10-09T13:27:32;98513.53;;;17.40;74.28
22311;BME280;11323;49.610;11.016;2023-10-09T13:32:35;98512.69;;;17.40;74.16
22311;BME280;11323;49.610;11.016;2023-10-09T13:37:36;98496.44;;;17.36;73.95
22311;BME280;11323;49.610;11.016;2023-10-09T13:42:37;98500.81;;;17.44;73.32
22311;BME280;11323;49.610;11.016;2023-10-09T13:47:38;98488.84;;;17.41;73.28
22311;BME280;11323;49.610;11.016;2023-10-09T13:52:39;98503.44;;;17.44;74.20
22311;BME280;11323;49.610;11.016;2023-10-09T13:57:39;98504.91;;;17.47;73.40
22311;BME280;11323;49.610;11.016;2023-10-09T14:02:43;98524.63;;;17.51;74.33
22311;BME280;11323;49.610;11.016;2023-10-09T14:07:46;98533.66;;;17.56;74.12
22311;BME280;11323;49.610;11.016;2023-10-09T14:12:46;98551.28;;;17.56;73.91
22311;BME280;11323;49.610;11.016;2023-10-09T14:17:47;98551.56;;;17.61;74.70
22311;BME280;11323;49.610;11.016;2023-10-09T14:22:56;98568.53;;;17.58;74.60
22311;BME280;11323;49.610;11.016;2023-10-09T14:27:56;98568.81;;;17.64;75.03
22311;BME280;11323;49.610;11.016;2023-10-09T14:33:01;98578.34;;;17.65;74.53
22311;BME280;11323;49.610;11.016;2023-10-09T14:38:04;98567.38;;;17.61;75.11
22311;BME280;11323;49.610;11.016;2023-10-09T14:43:12;98570.34;;;17.58;74.66
22311;BME280;11323;49.610;11.016;2023-10-09T14:48:22;98559.81;;;17.58;74.78
22311;BME280;11323;49.610;11.016;2023-10-09T14:53:26;98566.06;;;17.57;74.77
22311;BME280;11323;49.610;11.016;2023-10-09T14:58:27;98570.88;;;17.53;74.59
22311;BME280;11323;49.610;11.016;2023-10-09T15:03:29;98586.88;;;17.52;74.69
22311;BME280;11323;49.610;11.016;2023-10-09T15:08:37;98573.41;;;17.47;75.09
22311;BME280;11323;49.610;11.016;2023-10-09T15:13:38;98561.88;;;17.48;75.36
22311;BME280;11323;49.610;11.016;2023-10-09T15:18:39;98574.91;;;17.49;75.03
22311;BME280;11323;49.610;11.016;2023-10-09T15:23:40;98585.31;;;17.42;75.14
22311;BME280;11323;49.610;11.016;2023-10-09T15:28:40;98572.31;;;17.41;75.52
22311;BME280;11323;49.610;11.016;2023-10-09T15:33:41;98576.78;;;17.40;75.18
22311;BME280;11323;49.610;11.016;2023-10-09T15:38:42;98568.41;;;17.37;75.51
22311;BME280;11323;49.610;11.016;2023-10-09T15:43:42;98568.00;;;17.25;75.30
22311;BME280;11323;49.610;11.016;2023-10-09T15:48:48;98597.63;;;17.27;75.71
22311;BME280;11323;49.610;11.016;2023-10-09T15:53:49;98598.69;;;17.18;75.63
22311;BME280;11323;49.610;11.016;2023-10-09T15:58:51;98601.50;;;17.16;74.94
22311;BME280;11323;49.610;11.016;2023-10-09T16:03:54;98596.09;;;17.09;75.32
22311;BME280;11323;49.610;11.016;2023-10-09T16:08:54;98577.38;;;17.04;75.47
22311;BME280;11323;49.610;11.016;2023-10-09T16:13:55;98572.44;;;17.01;74.80
22311;BME280;11323;49.610;11.016;2023-10-09T16:18:56;98576.78;;;16.94;75.38
22311;BME280;11323;49.610;11.016;2023-10-09T16:23:56;98577.09;;;16.91;75.33
22311;BME280;11323;49.610;11.016;2023-10-09T16:28:59;98557.06;;;16.81;75.56
22311;BME280;11323;49.610;11.016;2023-10-09T16:34:00;98559.13;;;16.71;75.70
22311;BME280;11323;49.610;11.016;2023-10-09T16:39:00;98571.63;;;16.69;75.48
22311;BME280;11323;49.610;11.016;2023-10-09T16:44:02;98569.34;;;16.66;75.46
22311;BME280;11323;49.610;11.016;2023-10-09T16:49:05;98567.41;;;16.60;75.81
22311;BME280;11323;49.610;11.016;2023-10-09T16:54:05;98558.56;;;16.52;75.72
22311;BME280;11323;49.610;11.016;2023-10-09T16:59:06;98570.72;;;16.54;76.03
22311;BME280;11323;49.610;11.016;2023-10-09T17:04:13;98595.75;;;16.49;75.51
22311;BME280;11323;49.610;11.016;2023-10-09T17:09:16;98593.09;;;16.49;75.44
22311;BME280;11323;49.610;11.016;2023-10-09T17:14:20;98606.59;;;16.46;75.70
22311;BME280;11323;49.610;11.016;2023-10-09T17:19:26;98608.56;;;16.44;75.95
22311;BME280;11323;49.610;11.016;2023-10-09T17:24:27;98587.22;;;16.39;75.29
22311;BME280;11323;49.610;11.016;2023-10-09T17:29:27;98594.47;;;16.37;75.81
22311;BME280;11323;49.610;11.016;2023-10-09T17:34:27;98594.47;;;16.37;75.87
22311;BME280;11323;49.610;11.016;2023-10-09T17:39:31;98599.44;;;16.32;75.83
22311;BME280;11323;49.610;11.016;2023-10-09T17:44:33;98594.50;;;16.29;75.83
22311;BME280;11323;49.610;11.016;2023-10-09T17:49:34;98594.50;;;16.29;75.88
22311;BME280;11323;49.610;11.016;2023-10-09T17:54:37;98601.22;;;16.31;75.89
22311;BME280;11323;49.610;11.016;2023-10-09T17:59:38;98574.97;;;16.23;75.69
22311;BME280;11323;49.610;11.016;2023-10-09T18:04:38;98575.44;;;16.27;75.82
22311;BME280;11323;49.610;11.016;2023-10-09T18:09:41;98595.16;;;16.23;75.70
22311;BME280;11323;49.610;11.016;2023-10-09T18:14:43;98599.44;;;16.24;75.66
22311;BME280;11323;49.610;11.016;2023-10-09T18:19:43;98608.31;;;16.23;75.93
22311;BME280;11323;49.610;11.016;2023-10-09T18:24:44;98592.25;;;16.17;75.61
22311;BME280;11323;49.610;11.016;2023-10-09T18:29:44;98600.28;;;16.16;75.63
22311;BME280;11323;49.610;11.016;2023-10-09T18:34:48;98604.06;;;16.13;76.09
22311;BME280;11323;49.610;11.016;2023-10-09T18:39:49;98597.81;;;16.14;75.66
22311;BME280;11323;49.610;11.016;2023-10-09T18:44:49;98608.69;;;16.11;75.80
22311;BME280;11323;49.610;11.016;2023-10-09T18:49:50;98598.53;;;16.08;75.71
22311;BME280;11323;49.610;11.016;2023-10-09T18:54:51;98591.63;;;16.07;75.68
22311;BME280;11323;49.610;11.016;2023-10-09T18:59:51;98588.16;;;16.06;76.21
22311;BME280;11323;49.610;11.016;2023-10-09T19:04:52;98590.28;;;16.03;75.91
22311;BME280;11323;49.610;11.016;2023-10-09T19:09:56;98602.63;;;16.02;75.74
22311;BME280;11323;49.610;11.016;2023-10-09T19:14:57;98608.03;;;16.01;76.10
22311;BME280;11323;49.610;11.016;2023-10-09T19:19:57;98600.34;;;15.99;76.14
22311;BME280;11323;49.610;11.016;2023-10-09T19:24:59;98602.63;;;15.94;75.81
22311;BME280;11323;49.610;11.016;2023-10-09T19:29:59;98611.03;;;15.98;75.97
22311;BME280;11323;49.610;11.016;2023-10-09T19:35:01;98611.34;;;15.95;75.70
22311;BME280;11323;49.610;11.016;2023-10-09T19:40:04;98611.84;;;15.90;75.78
22311;BME280;11323;49.610;11.016;2023-10-09T19:45:09;98614.31;;;15.92;75.95
22311;BME280;11323;49.610;11.016;2023-10-09T19:50:10;98621.22;;;15.93;75.88
22311;BME280;11323;49.610;11.016;2023-10-09T19:55:14;98621.53;;;15.89;75.92
22311;BME280;11323;49.610;11.016;2023-10-09T20:00:15;98633.69;;;15.90;76.23
22311;BME280;11323;49.610;11.016;2023-10-09T20:05:24;98622.69;;;15.87;75.67
22311;BME280;11323;49.610;11.016;2023-10-09T20:10:27;98636.81;;;15.86;75.98
22311;BME280;11323;49.610;11.016;2023-10-09T20:15:27;98645.19;;;15.81;75.48
22311;BME280;11323;49.610;11.016;2023-10-09T20:20:28;98647.16;;;15.79;76.53
22311;BME280;11323;49.610;11.016;2023-10-09T20:25:32;98652.75;;;15.76;76.10
22311;BME280;11323;49.610;11.016;2023-10-09T20:30:34;98653.72;;;15.75;76.35
22311;BME280;11323;49.610;11.016;2023-10-09T20:35:36;98657.34;;;15.74;75.99
22311;BME280;11323;49.610;11.016;2023-10-09T20:40:39;98657.97;;;15.68;76.26
22311;BME280;11323;49.610;11.016;2023-10-09T20:45:40;98655.72;;;15.65;76.07
22311;BME280;11323;49.610;11.016;2023-10-09T20:50:40;98661.94;;;15.64;75.65
22311;BME280;11323;49.610;11.016;2023-10-09T20:55:48;98678.34;;;15.66;76.08
22311;BME280;11323;49.610;11.016;2023-10-09T21:00:50;98687.25;;;15.65;75.72
22311;BME280;11323;49.610;11.016;2023-10-09T21:05:54;98681.47;;;15.61;76.07
22311;BME280;11323;49.610;11.016;2023-10-09T21:10:55;98676.56;;;15.58;76.01
22311;BME280;11323;49.610;11.016;2023-10-09T21:15:56;98674.41;;;15.53;75.99
22311;BME280;11323;49.610;11.016;2023-10-09T21:20:56;98687.06;;;15.58;76.01
22311;BME280;11323;49.610;11.016;2023-10-09T21:25:56;98684.94;;;15.53;75.96
22311;BME280;11323;49.610;11.016;2023-10-09T21:30:57;98675.06;;;15.47;76.19
22311;BME280;11323;49.610;11.016;2023-10-09T21:35:57;98680.47;;;15.46;75.71
22311;BME280;11323;49.610;11.016;2023-10-09T21:40:58;98682.28;;;15.45;75.92
22311;BME280;11323;49.610;11.016;2023-10-09T21:46:09;98677.38;;;15.42;75.91
22311;BME280;11323;49.610;11.016;2023-10-09T21:51:13;98680.00;;;15.42;75.57
22311;BME280;11323;49.610;11.016;2023-10-09T21:56:16;98693.13;;;15.42;75.68
22311;BME280;11323;49.610;11.016;2023-10-09T22:01:18;98696.06;;;15.39;76.07
22311;BME280;11323;49.610;11.016;2023-10-09T22:06:21;98706.56;;;15.39;75.46
22311;BME280;11323;49.610;11.016;2023-10-09T22:11:23;98694.06;;;15.33;75.66
22311;BME280;11323;49.610;11.016;2023-10-09T22:16:23;98690.28;;;15.27;75.71
22311;BME280;11323;49.610;11.016;2023-10-09T22:21:25;98692.28;;;15.25;75.71
22311;BME280;11323;49.610;11.016;2023-10-09T22:26:28;98690.94;;;15.21;75.97
22311;BME280;11323;49.610;11.016;2023-10-09T22:31:28;98686.84;;;15.18;75.21
22311;BME280;11323;49.610;11.016;2023-10-09T22:36:28;98690.75;;;15.14;75.92
22311;BME280;11323;49.610;11.016;2023-10-09T22:41:29;98693.84;;;15.09;75.85
22311;BME280;11323;49.610;11.016;2023-10-09T22:46:30;98696.28;;;15.03;75.24
22311;BME280;11323;49.610;11.016;2023-10-09T22:51:30;98693.31;;;14.97;75.16
22311;BME280;11323;49.610;11.016;2023-10-09T22:56:31;98694.63;;;14.93;75.40
22311;BME280;11323;49.610;11.016;2023-10-09T23:01:31;98696.91;;;14.88;75.46
22311;BME280;11323;49.610;11.016;2023-10-09T23:06:33;98701.63;;;14.85;75.85
22311;BME280;11323;49.610;11.016;2023-10-09T23:11:34;98694.25;;;14.80;75.11
22311;BME280;11323;49.610;11.016;2023-10-09T23:16:34;98698.00;;;14.77;75.41
22311;BME280;11323;49.610;11.016;2023-10-09T23:21:48;98699.47;;;14.72;75.39
22311;BME280;11323;49.610;11.016;2023-10-09T23:27:07;98706.66;;;14.70;75.27
22311;BME280;11323;49.610;11.016;2023-10-09T23:32:29;98698.56;;;14.63;75.54
22311;BME280;11323;49.610;11.016;2023-10-09T23:37:37;98700.00;;;14.57;75.36
22311;BME280;11323;49.610;11.016;2023-10-09T23:42:38;98699.03;;;14.58;74.85
22311;BME280;11323;49.610;11.016;2023-10-09T23:47:41;98684.56;;;14.54;75.87
22311;BME280;11323;49.610;11.016;2023-10-09T23:52:47;98683.56;;;14.47;74.96
22311;BME280;11323;49.610;11.016;2023-10-09T23:57:59;98686.03;;;14.48;74.84
